sensor_id;sensor_type;location;lat;lon;timestamp;pressure;altitude;pressure_sealevel;temperature;humidity
56876;BME280;42622;49.972;8.452;2023-04-28T00:02:09;100520.34;;;10.71;100.00
56876;BME280;42622;49.972;8.452;2023-04-28T00:04:35;100512.44;;;10.71;100.00
56876;BME280;42622;49.972;8.452;2023-04-28T00:07:01;100506.06;;;10.73;100.00
56876;BME280;42622;49.972;8.452;2023-04-28T00:09:27;100492.84;;;10.73;100.00
56876;BME280;42622;49.972;8.452;2023-04-28T00:11:53;100497.28;;;10.73;100.00
56876;BME280;42622;49.972;8.452;2023-04-28T00:14:19;100490.31;;;10.72;100.00
56876;BME280;42622;49.972;8.452;2023-04-28T00:16:45;100485.75;;;10.74;100.00
56876;BME280;42622;49.972;8.452;2023-04-28T00:19:10;100477.81;;;10.74;100.00
56876;BME280;42622;49.972;8.452;2023-04-28T00:21:36;100471.88;;;10.70;99.99
56876;BME280;42622;49.972;8.452;2023-04-28T00:24:02;100471.16;;;10.68;100.00
56876;BME280;42622;49.972;8.452;2023-04-28T00:26:28;100468.84;;;10.64;100.00
56876;BME280;42622;49.972;8.452;2023-04-28T00:28:53;100463.75;;;10.61;100.00
56876;BME280;42622;49.972;8.452;2023-04-28T00:31:19;100469.03;;;10.61;100.00
56876;BME280;42622;49.972;8.452;2023-04-28T00:33:45;100462.16;;;10.58;100.00
56876;BME280;42622;49.972;8.452;2023-04-28T00:36:10;100457.06;;;10.55;100.00
56876;BME280;42622;49.972;8.452;2023-04-28T00:38:36;100458.13;;;10.52;100.00
56876;BME280;42622;49.972;8.452;2023-04-28T00:41:03;100453.25;;;10.46;100.00
56876;BME280;42622;49.972;8.452;2023-04-28T00:43:29;100454.50;;;10.41;100.00
56876;BME280;42622;49.972;8.452;2023-04-28T00:45:54;100460.13;;;10.36;100.00
56876;BME280;42622;49.972;8.452;2023-04-28T00:48:20;100452.38;;;10.33;100.00
56876;BME280;42622;49.972;8.452;2023-04-28T00:50:49;100448.06;;;10.32;100.00
56876;BME280;42622;49.972;8.452;2023-04-28T00:53:15;100443.81;;;10.29;100.00
56876;BME280;42622;49.972;8.452;2023-04-28T00:55:41;100441.44;;;10.25;100.00
56876;BME280;42622;49.972;8.452;2023-04-28T00:58:08;100438.38;;;10.18;100.00
56876;BME280;42622;49.972;8.452;2023-04-28T01:00:34;100430.53;;;10.17;100.00
56876;BME280;42622;49.972;8.452;2023-04-28T01:03:00;100425.25;;;10.17;100.00
56876;BME280;42622;49.972;8.452;2023-04-28T01:05:26;100421.44;;;10.21;100.00
56876;BME280;42622;49.972;8.452;2023-04-28T01:07:52;100420.13;;;10.28;100.00
56876;BME280;42622;49.972;8.452;2023-04-28T01:10:19;100413.59;;;10.34;100.00
56876;BME280;42622;49.972;8.452;2023-04-28T01:12:45;100405.47;;;10.37;100.00
56876;BME280;42622;49.972;8.452;2023-04-28T01:15:20;100400.06;;;10.38;100.00
56876;BME280;42622;49.972;8.452;2023-04-28T01:17:46;100412.34;;;10.39;100.00
56876;BME280;42622;49.972;8.452;2023-04-28T01:20:14;100403.53;;;10.39;100.00
56876;BME280;42622;49.972;8.452;2023-04-28T01:22:40;100407.16;;;10.38;100.00
56876;BME280;42622;49.972;8.452;2023-04-28T01:25:06;100398.78;;;10.31;100.00
56876;BME280;42622;49.972;8.452;2023-04-28T01:27:32;100397.66;;;10.21;100.00
56876;BME280;42622;49.972;8.452;2023-04-28T01:29:57;100401.13;;;10.09;100.00
56876;BME280;42622;49.972;8.452;2023-04-28T01:32:23;100402.69;;;9.98;100.00
56876;BME280;42622;49.972;8.452;2023-04-28T01:34:49;100394.50;;;9.89;100.00
56876;BME280;42622;49.972;8.452;2023-04-28T01:37:14;100401.34;;;9.78;100.00
56876;BME280;42622;49.972;8.452;2023-04-28T01:39:40;100392.53;;;9.65;100.00
56876;BME280;42622;49.972;8.452;2023-04-28T01:42:06;100377.28;;;9.56;100.00
56876;BME280;42622;49.972;8.452;2023-04-28T01:44:32;100376.63;;;9.52;100.00
56876;BME280;42622;49.972;8.452;2023-04-28T01:46:57;100375.16;;;9.48;100.00
56876;BME280;42622;49.972;8.452;2023-04-28T01:49:23;100377.97;;;9.45;100.00
56876;BME280;42622;49.972;8.452;2023-04-28T01:51:49;100377.22;;;9.43;100.00
56876;BME280;42622;49.972;8.452;2023-04-28T01:54:15;100378.28;;;9.41;100.00
56876;BME280;42622;49.972;8.452;2023-04-28T01:56:40;100384.59;;;9.38;100.00
56876;BME280;42622;49.972;8.452;2023-04-28T01:59:06;100384.78;;;9.35;100.00
56876;BME280;42622;49.972;8.452;2023-04-28T02:01:32;100394.78;;;9.30;100.00
56876;BME280;42622;49.972;8.452;2023-04-28T02:03:57;100388.94;;;9.25;100.00
56876;BME280;42622;49.972;8.452;2023-04-28T02:06:23;100387.25;;;9.24;100.00
56876;BME280;42622;49.972;8.452;2023-04-28T02:08:49;100389.13;;;9.22;100.00
56876;BME280;42622;49.972;8.452;2023-04-28T02:11:15;100391.22;;;9.17;100.00
56876;BME280;42622;49.972;8.452;2023-04-28T02:13:40;100388.78;;;9.14;100.00
56876;BME280;42622;49.972;8.452;2023-04-28T02:16:06;100384.63;;;9.09;100.00
56876;BME280;42622;49.972;8.452;2023-04-28T02:18:32;100383.03;;;9.07;100.00
56876;BME280;42622;49.972;8.452;2023-04-28T02:20:58;100379.66;;;9.05;100.00
56876;BME280;42622;49.972;8.452;2023-04-28T02:23:23;100379.56;;;9.06;100.00
56876;BME280;42622;49.972;8.452;2023-04-28T02:25:49;100382.19;;;9.06;100.00
56876;BME280;42622;49.972;8.452;2023-04-28T02:28:15;100388.22;;;9.08;100.00
56876;BME280;42622;49.972;8.452;2023-04-28T02:30:41;100381.16;;;9.09;100.00
56876;BME280;42622;49.972;8.452;2023-04-28T02:33:06;100380.09;;;9.12;100.00
56876;BME280;42622;49.972;8.452;2023-04-28T02:35:32;100372.09;;;9.13;100.00
56876;BME280;42622;49.972;8.452;2023-04-28T02:37:58;100363.34;;;9.13;100.00
56876;BME280;42622;49.972;8.452;2023-04-28T02:40:23;100356.34;;;9.12;100.00
56876;BME280;42622;49.972;8.452;2023-04-28T02:42:49;100359.00;;;9.12;100.00
56876;BME280;42622;49.972;8.452;2023-04-28T02:45:15;100348.56;;;9.10;100.00
56876;BME280;42622;49.972;8.452;2023-04-28T02:47:41;100349.22;;;9.14;100.00
56876;BME280;42622;49.972;8.452;2023-04-28T02:50:07;100345.53;;;9.16;100.00
56876;BME280;42622;49.972;8.452;2023-04-28T02:52:33;100352.44;;;9.19;100.00
56876;BME280;42622;49.972;8.452;2023-04-28T02:54:59;100353.28;;;9.19;100.00
56876;BME280;42622;49.972;8.452;2023-04-28T02:57:25;100346.94;;;9.22;100.00
56876;BME280;42622;49.972;8.452;2023-04-28T02:59:51;100345.06;;;9.24;100.00
56876;BME280;42622;49.972;8.452;2023-04-28T03:02:16;100344.09;;;9.25;100.00
56876;BME280;42622;49.972;8.452;2023-04-28T03:04:42;100338.81;;;9.25;100.00
56876;BME280;42622;49.972;8.452;2023-04-28T03:07:08;100336.19;;;9.25;100.00
56876;BME280;42622;49.972;8.452;2023-04-28T03:09:33;100336.19;;;9.25;100.00
56876;BME280;42622;49.972;8.452;2023-04-28T03:11:59;100344.09;;;9.25;100.00
56876;BME280;42622;49.972;8.452;2023-04-28T03:14:27;100345.25;;;9.21;100.00
56876;BME280;42622;49.972;8.452;2023-04-28T03:16:53;100330.56;;;9.17;100.00
56876;BME280;42622;49.972;8.452;2023-04-28T03:19:19;100328.13;;;9.14;100.00
56876;BME280;42622;49.972;8.452;2023-04-28T03:21:45;100332.75;;;9.10;100.00
56876;BME280;42622;49.972;8.452;2023-04-28T03:24:12;100330.41;;;9.05;100.00
56876;BME280;42622;49.972;8.452;2023-04-28T03:26:37;100341.13;;;9.02;100.00
56876;BME280;42622;49.972;8.452;2023-04-28T03:29:03;100327.19;;;9.00;100.00
56876;BME280;42622;49.972;8.452;2023-04-28T03:31:29;100316.75;;;8.99;100.00
56876;BME280;42622;49.972;8.452;2023-04-28T03:33:54;100323.81;;;8.98;100.00
56876;BME280;42622;49.972;8.452;2023-04-28T03:36:20;100322.09;;;8.97;100.00
56876;BME280;42622;49.972;8.452;2023-04-28T03:38:46;100326.47;;;8.98;100.00
56876;BME280;42622;49.972;8.452;2023-04-28T03:41:12;100327.38;;;8.97;100.00
56876;BME280;42622;49.972;8.452;2023-04-28T03:43:38;100335.41;;;8.96;100.00
56876;BME280;42622;49.972;8.452;2023-04-28T03:46:03;100313.47;;;8.95;100.00
56876;BME280;42622;49.972;8.452;2023-04-28T03:48:29;100319.38;;;8.99;100.00
56876;BME280;42622;49.972;8.452;2023-04-28T03:50:55;100308.84;;;8.99;100.00
56876;BME280;42622;49.972;8.452;2023-04-28T03:53:21;100302.53;;;9.01;100.00
56876;BME280;42622;49.972;8.452;2023-04-28T03:55:47;100300.81;;;9.00;100.00
56876;BME280;42622;49.972;8.452;2023-04-28T03:58:13;100296.38;;;9.01;100.00
56876;BME280;42622;49.972;8.452;2023-04-28T04:00:38;100289.34;;;9.01;100.00
56876;BME280;42622;49.972;8.452;2023-04-28T04:03:04;100294.63;;;9.01;100.00
56876;BME280;42622;49.972;8.452;2023-04-28T04:05:30;100285.00;;;9.00;100.00
56876;BME280;42622;49.972;8.452;2023-04-28T04:07:55;100285.00;;;9.00;100.00
56876;BME280;42622;49.972;8.452;2023-04-28T04:10:22;100283.50;;;8.96;100.00
56876;BME280;42622;49.972;8.452;2023-04-28T04:12:47;100280.16;;;8.94;100.00
56876;BME280;42622;49.972;8.452;2023-04-28T04:15:13;100289.16;;;8.90;100.00
56876;BME280;42622;49.972;8.452;2023-04-28T04:17:40;100276.09;;;8.89;100.00
56876;BME280;42622;49.972;8.452;2023-04-28T04:20:07;100277.13;;;8.86;100.00
56876;BME280;42622;49.972;8.452;2023-04-28T04:22:32;100272.91;;;8.83;100.00
56876;BME280;42622;49.972;8.452;2023-04-28T04:24:58;100269.41;;;8.83;100.00
56876;BME280;42622;49.972;8.452;2023-04-28T04:27:24;100272.03;;;8.83;100.00
56876;BME280;42622;49.972;8.452;2023-04-28T04:29:50;100268.47;;;8.84;100.00
56876;BME280;42622;49.972;8.452;2023-04-28T04:32:15;100265.75;;;8.85;100.00
56876;BME280;42622;49.972;8.452;2023-04-28T04:34:41;100264.72;;;8.88;100.00
56876;BME280;42622;49.972;8.452;2023-04-28T04:37:08;100266.38;;;8.89;100.00
56876;BME280;42622;49.972;8.452;2023-04-28T04:39:34;100263.75;;;8.89;100.00
56876;BME280;42622;49.972;8.452;2023-04-28T04:42:01;100267.34;;;8.88;100.00
56876;BME280;42622;49.972;8.452;2023-04-28T04:44:27;100272.31;;;8.93;100.00
56876;BME280;42622;49.972;8.452;2023-04-28T04:46:53;100266.97;;;8.94;100.00
56876;BME280;42622;49.972;8.452;2023-04-28T04:49:18;100263.19;;;8.98;100.00
56876;BME280;42622;49.972;8.452;2023-04-28T04:51:44;100265.63;;;9.01;100.00
56876;BME280;42622;49.972;8.452;2023-04-28T04:54:10;100269.00;;;9.03;100.00
56876;BME280;42622;49.972;8.452;2023-04-28T04:56:35;100274.19;;;9.05;100.00
56876;BME280;42622;49.972;8.452;2023-04-28T04:59:01;100281.22;;;9.04;100.00
56876;BME280;42622;49.972;8.452;2023-04-28T05:01:27;100282.94;;;9.05;100.00
56876;BME280;42622;49.972;8.452;2023-04-28T05:03:53;100288.28;;;9.04;100.00
56876;BME280;42622;49.972;8.452;2023-04-28T05:06:19;100281.44;;;9.01;100.00
56876;BME280;42622;49.972;8.452;2023-04-28T05:08:45;100280.78;;;8.98;100.00
56876;BME280;42622;49.972;8.452;2023-04-28T05:11:10;100285.41;;;8.94;100.00
56876;BME280;42622;49.972;8.452;2023-04-28T05:13:36;100295.00;;;8.95;100.00
56876;BME280;42622;49.972;8.452;2023-04-28T05:16:03;100289.81;;;8.94;100.00
56876;BME280;42622;49.972;8.452;2023-04-28T05:18:29;100285.59;;;8.91;100.00
56876;BME280;42622;49.972;8.452;2023-04-28T05:20:55;100284.09;;;8.87;100.00
56876;BME280;42622;49.972;8.452;2023-04-28T05:23:22;100291.56;;;8.80;100.00
56876;BME280;42622;49.972;8.452;2023-04-28T05:25:47;100291.75;;;8.77;100.00
56876;BME280;42622;49.972;8.452;2023-04-28T05:28:13;100290.97;;;8.75;100.00
56876;BME280;42622;49.972;8.452;2023-04-28T05:30:39;100286.53;;;8.76;100.00
56876;BME280;42622;49.972;8.452;2023-04-28T05:33:05;100302.38;;;8.76;100.00
56876;BME280;42622;49.972;8.452;2023-04-28T05:35:31;100300.69;;;8.75;100.00
56876;BME280;42622;49.972;8.452;2023-04-28T05:37:57;100292.69;;;8.76;100.00
56876;BME280;42622;49.972;8.452;2023-04-28T05:40:23;100303.00;;;8.79;100.00
56876;BME280;42622;49.972;8.452;2023-04-28T05:42:49;100309.81;;;8.83;100.00
56876;BME280;42622;49.972;8.452;2023-04-28T05:45:15;100306.13;;;8.86;100.00
56876;BME280;42622;49.972;8.452;2023-04-28T05:47:40;100310.66;;;8.84;100.00
56876;BME280;42622;49.972;8.452;2023-04-28T05:50:07;100312.53;;;8.82;100.00
56876;BME280;42622;49.972;8.452;2023-04-28T05:52:33;100310.72;;;8.82;100.00
56876;BME280;42622;49.972;8.452;2023-04-28T05:54:59;100300.13;;;8.84;100.00
56876;BME280;42622;49.972;8.452;2023-04-28T05:57:25;100307.84;;;8.87;100.00
56876;BME280;42622;49.972;8.452;2023-04-28T05:59:50;100303.28;;;8.89;100.00
56876;BME280;42622;49.972;8.452;2023-04-28T06:02:17;100311.13;;;8.91;100.00
56876;BME280;42622;49.972;8.452;2023-04-28T06:04:42;100306.69;;;8.91;100.00
56876;BME280;42622;49.972;8.452;2023-04-28T06:07:09;100310.25;;;8.90;100.00
56876;BME280;42622;49.972;8.452;2023-04-28T06:09:35;100308.56;;;8.89;100.00
56876;BME280;42622;49.972;8.452;2023-04-28T06:12:01;100304.25;;;8.88;100.00
56876;BME280;42622;49.972;8.452;2023-04-28T06:14:28;100308.56;;;8.89;100.00
56876;BME280;42622;49.972;8.452;2023-04-28T06:16:55;100305.94;;;8.89;100.00
56876;BME280;42622;49.972;8.452;2023-04-28T06:19:21;100309.59;;;8.86;100.00
56876;BME280;42622;49.972;8.452;2023-04-28T06:21:47;100311.56;;;8.83;100.00
56876;BME280;42622;49.972;8.452;2023-04-28T06:24:14;100308.09;;;8.82;100.00
56876;BME280;42622;49.972;8.452;2023-04-28T06:26:41;100316.78;;;8.84;100.00
56876;BME280;42622;49.972;8.452;2023-04-28T06:29:07;100322.69;;;8.88;100.00
56876;BME280;42622;49.972;8.452;2023-04-28T06:31:33;100311.97;;;8.91;100.00
56876;BME280;42622;49.972;8.452;2023-04-28T06:33:59;100313.47;;;8.95;100.00
56876;BME280;42622;49.972;8.452;2023-04-28T06:36:24;100312.50;;;8.96;100.00
56876;BME280;42622;49.972;8.452;2023-04-28T06:38:50;100318.53;;;8.98;100.00
56876;BME280;42622;49.972;8.452;2023-04-28T06:41:17;100318.53;;;8.98;100.00
56876;BME280;42622;49.972;8.452;2023-04-28T06:43:43;100331.91;;;8.95;100.00
56876;BME280;42622;49.972;8.452;2023-04-28T06:46:08;100321.19;;;8.98;100.00
56876;BME280;42622;49.972;8.452;2023-04-28T06:48:37;100314.97;;;8.99;100.00
56876;BME280;42622;49.972;8.452;2023-04-28T06:51:04;100322.75;;;9.01;100.00
56876;BME280;42622;49.972;8.452;2023-04-28T06:53:30;100325.31;;;9.02;100.00
56876;BME280;42622;49.972;8.452;2023-04-28T06:55:56;100309.31;;;9.05;100.00
56876;BME280;42622;49.972;8.452;2023-04-28T06:58:21;100304.56;;;9.10;100.00
56876;BME280;42622;49.972;8.452;2023-04-28T07:00:47;100302.41;;;9.17;100.00
56876;BME280;42622;49.972;8.452;2023-04-28T07:03:13;100310.88;;;9.22;100.00
56876;BME280;42622;49.972;8.452;2023-04-28T07:05:39;100304.53;;;9.25;100.00
56876;BME280;42622;49.972;8.452;2023-04-28T07:08:05;100296.53;;;9.26;100.00
56876;BME280;42622;49.972;8.452;2023-04-28T07:10:31;100301.50;;;9.31;100.00
56876;BME280;42622;49.972;8.452;2023-04-28T07:12:57;100300.56;;;9.32;100.00
56876;BME280;42622;49.972;8.452;2023-04-28T07:15:23;100291.59;;;9.34;100.00
56876;BME280;42622;49.972;8.452;2023-04-28T07:17:49;100292.25;;;9.38;100.00
56876;BME280;42622;49.972;8.452;2023-04-28T07:20:15;100290.91;;;9.45;100.00
56876;BME280;42622;49.972;8.452;2023-04-28T07:22:41;100283.75;;;9.47;100.00
56876;BME280;42622;49.972;8.452;2023-04-28T07:25:07;100277.53;;;9.48;100.00
56876;BME280;42622;49.972;8.452;2023-04-28T07:27:32;100282.41;;;9.54;100.00
56876;BME280;42622;49.972;8.452;2023-04-28T07:29:59;100295.63;;;9.67;100.00
56876;BME280;42622;49.972;8.452;2023-04-28T07:32:25;100288.06;;;9.75;100.00
56876;BME280;42622;49.972;8.452;2023-04-28T07:34:51;100296.38;;;9.82;100.00
56876;BME280;42622;49.972;8.452;2023-04-28T07:37:17;100291.09;;;9.82;100.00
56876;BME280;42622;49.972;8.452;2023-04-28T07:39:43;100285.81;;;9.82;100.00
56876;BME280;42622;49.972;8.452;2023-04-28T07:42:09;100278.66;;;9.84;100.00
56876;BME280;42622;49.972;8.452;2023-04-28T07:44:35;100285.97;;;9.93;100.00
56876;BME280;42622;49.972;8.452;2023-04-28T07:47:01;100283.97;;;9.97;100.00
56876;BME280;42622;49.972;8.452;2023-04-28T07:49:28;100282.81;;;10.01;100.00
56876;BME280;42622;49.972;8.452;2023-04-28T07:51:54;100284.41;;;10.03;100.00
56876;BME280;42622;49.972;8.452;2023-04-28T07:54:21;100285.88;;;10.08;100.00
56876;BME280;42622;49.972;8.452;2023-04-28T07:56:47;100296.97;;;10.13;100.00
56876;BME280;42622;49.972;8.452;2023-04-28T07:59:13;100298.88;;;10.11;100.00
56876;BME280;42622;49.972;8.452;2023-04-28T08:01:39;100290.41;;;10.05;100.00
56876;BME280;42622;49.972;8.452;2023-04-28T08:04:05;100287.25;;;10.00;100.00
56876;BME280;42622;49.972;8.452;2023-04-28T08:06:31;100284.41;;;10.03;100.00
56876;BME280;42622;49.972;8.452;2023-04-28T08:08:59;100289.38;;;10.08;100.00
56876;BME280;42622;49.972;8.452;2023-04-28T08:11:27;100295.38;;;10.10;100.00
56876;BME280;42622;49.972;8.452;2023-04-28T08:13:52;100306.06;;;10.09;100.00
56876;BME280;42622;49.972;8.452;2023-04-28T08:16:18;100304.38;;;10.08;100.00
56876;BME280;42622;49.972;8.452;2023-04-28T08:18:45;100302.44;;;10.10;100.00
56876;BME280;42622;49.972;8.452;2023-04-28T08:21:11;100304.06;;;10.12;100.00
56876;BME280;42622;49.972;8.452;2023-04-28T08:23:37;100305.66;;;10.15;100.00
56876;BME280;42622;49.972;8.452;2023-04-28T08:26:04;100307.13;;;10.19;100.00
56876;BME280;42622;49.972;8.452;2023-04-28T08:28:30;100298.88;;;10.23;100.00
56876;BME280;42622;49.972;8.452;2023-04-28T08:30:57;100302.19;;;10.27;100.00
56876;BME280;42622;49.972;8.452;2023-04-28T08:33:25;100308.03;;;10.32;100.00
56876;BME280;42622;49.972;8.452;2023-04-28T08:35:51;100301.25;;;10.41;100.00
56876;BME280;42622;49.972;8.452;2023-04-28T08:38:16;100317.31;;;10.50;100.00
56876;BME280;42622;49.972;8.452;2023-04-28T08:40:43;100310.00;;;10.54;100.00
56876;BME280;42622;49.972;8.452;2023-04-28T08:43:09;100311.81;;;10.53;100.00
56876;BME280;42622;49.972;8.452;2023-04-28T08:45:42;100317.09;;;10.53;100.00
56876;BME280;42622;49.972;8.452;2023-04-28T08:48:21;100310.00;;;10.54;100.00
56876;BME280;42622;49.972;8.452;2023-04-28T08:50:52;100315.38;;;10.52;100.00
56876;BME280;42622;49.972;8.452;2023-04-28T08:53:25;100313.50;;;10.55;100.00
56876;BME280;42622;49.972;8.452;2023-04-28T08:55:55;100313.72;;;10.64;100.00
56876;BME280;42622;49.972;8.452;2023-04-28T08:58:26;100303.22;;;10.75;100.00
56876;BME280;42622;49.972;8.452;2023-04-28T09:00:53;100303.19;;;10.88;100.00
56876;BME280;42622;49.972;8.452;2023-04-28T09:03:19;100313.66;;;11.03;100.00
56876;BME280;42622;49.972;8.452;2023-04-28T09:05:47;100310.44;;;11.10;100.00
56876;BME280;42622;49.972;8.452;2023-04-28T09:08:13;100315.19;;;11.18;100.00
56876;BME280;42622;49.972;8.452;2023-04-28T09:10:40;100308.50;;;11.25;100.00
56876;BME280;42622;49.972;8.452;2023-04-28T09:13:06;100314.28;;;11.30;100.00
56876;BME280;42622;49.972;8.452;2023-04-28T09:15:37;100309.31;;;11.38;100.00
56876;BME280;42622;49.972;8.452;2023-04-28T09:18:07;100319.19;;;11.47;100.00
56876;BME280;42622;49.972;8.452;2023-04-28T09:20:35;100321.19;;;11.57;100.00
56876;BME280;42622;49.972;8.452;2023-04-28T09:23:18;100308.34;;;11.63;100.00
56876;BME280;42622;49.972;8.452;2023-04-28T09:26:06;100310.41;;;11.71;100.00
56876;BME280;42622;49.972;8.452;2023-04-28T09:28:34;100310.03;;;11.88;100.00
56876;BME280;42622;49.972;8.452;2023-04-28T09:31:01;100312.56;;;11.90;100.00
56876;BME280;42622;49.972;8.452;2023-04-28T09:33:27;100308.78;;;11.81;100.00
56876;BME280;42622;49.972;8.452;2023-04-28T09:35:53;100312.72;;;12.00;100.00
56876;BME280;42622;49.972;8.452;2023-04-28T09:38:22;100309.50;;;12.18;100.00
56876;BME280;42622;49.972;8.452;2023-04-28T09:41:00;100307.50;;;12.33;100.00
56876;BME280;42622;49.972;8.452;2023-04-28T09:43:31;100319.28;;;12.29;100.00
56876;BME280;42622;49.972;8.452;2023-04-28T09:46:03;100315.53;;;12.20;100.00
56876;BME280;42622;49.972;8.452;2023-04-28T09:48:36;100325.88;;;12.12;100.00
56876;BME280;42622;49.972;8.452;2023-04-28T09:51:05;100318.50;;;12.05;100.00
56876;BME280;42622;49.972;8.452;2023-04-28T09:53:33;100315.50;;;11.98;100.00
56876;BME280;42622;49.972;8.452;2023-04-28T09:56:02;100316.19;;;12.00;100.00
56876;BME280;42622;49.972;8.452;2023-04-28T09:58:39;100313.69;;;12.10;100.00
56876;BME280;42622;49.972;8.452;2023-04-28T10:01:09;100310.34;;;12.19;100.00
56876;BME280;42622;49.972;8.452;2023-04-28T10:03:38;100313.25;;;12.27;100.00
56876;BME280;42622;49.972;8.452;2023-04-28T10:06:06;100307.59;;;12.43;100.00
56876;BME280;42622;49.972;8.452;2023-04-28T10:08:33;100307.75;;;12.53;100.00
56876;BME280;42622;49.972;8.452;2023-04-28T10:11:00;100307.66;;;12.65;100.00
56876;BME280;42622;49.972;8.452;2023-04-28T10:13:27;100297.13;;;12.75;100.00
56876;BME280;42622;49.972;8.452;2023-04-28T10:15:54;100304.75;;;12.80;100.00
56876;BME280;42622;49.972;8.452;2023-04-28T10:18:22;100301.72;;;12.84;100.00
56876;BME280;42622;49.972;8.452;2023-04-28T10:21:04;100312.44;;;12.72;100.00
56876;BME280;42622;49.972;8.452;2023-04-28T10:24:09;100308.84;;;12.73;100.00
56876;BME280;42622;49.972;8.452;2023-04-28T10:27:08;100312.59;;;12.59;100.00
56876;BME280;42622;49.972;8.452;2023-04-28T10:29:35;100308.59;;;12.64;100.00
56876;BME280;42622;49.972;8.452;2023-04-28T10:32:22;100303.41;;;12.74;100.00
56876;BME280;42622;49.972;8.452;2023-04-28T10:38:14;100288.66;;;13.04;100.00
56876;BME280;42622;49.972;8.452;2023-04-28T10:40:46;100295.66;;;13.27;100.00
56876;BME280;42622;49.972;8.452;2023-04-28T10:43:51;100291.88;;;13.41;100.00
56876;BME280;42622;49.972;8.452;2023-04-28T10:46:18;100291.28;;;13.37;100.00
56876;BME280;42622;49.972;8.452;2023-04-28T10:56:16;100289.63;;;13.90;100.00
56876;BME280;42622;49.972;8.452;2023-04-28T11:06:39;100284.88;;;14.35;100.00
56876;BME280;42622;49.972;8.452;2023-04-28T11:17:04;100266.22;;;14.25;100.00
56876;BME280;42622;49.972;8.452;2023-04-28T11:19:42;100269.63;;;14.58;100.00
56876;BME280;42622;49.972;8.452;2023-04-28T11:22:20;100272.25;;;14.89;100.00
56876;BME280;42622;49.972;8.452;2023-04-28T11:24:59;100273.94;;;14.90;100.00
56876;BME280;42622;49.972;8.452;2023-04-28T11:27:30;100277.81;;;14.76;100.00
56876;BME280;42622;49.972;8.452;2023-04-28T11:29:58;100278.44;;;14.58;100.00
56876;BME280;42622;49.972;8.452;2023-04-28T11:32:32;100281.03;;;14.49;100.00
56876;BME280;42622;49.972;8.452;2023-04-28T11:34:58;100275.25;;;14.44;100.00
56876;BME280;42622;49.972;8.452;2023-04-28T11:37:25;100279.88;;;14.42;100.00
56876;BME280;42622;49.972;8.452;2023-04-28T11:39:51;100277.66;;;14.47;100.00
56876;BME280;42622;49.972;8.452;2023-04-28T11:42:17;100277.16;;;14.53;100.00
56876;BME280;42622;49.972;8.452;2023-04-28T11:44:50;100264.72;;;14.53;100.00
56876;BME280;42622;49.972;8.452;2023-04-28T11:47:32;100263.50;;;14.67;100.00
56876;BME280;42622;49.972;8.452;2023-04-28T11:49:59;100260.22;;;14.94;100.00
56876;BME280;42622;49.972;8.452;2023-04-28T11:52:25;100266.16;;;15.17;100.00
56876;BME280;42622;49.972;8.452;2023-04-28T11:54:54;100262.09;;;15.33;100.00
56876;BME280;42622;49.972;8.452;2023-04-28T11:57:23;100262.81;;;15.54;100.00
56876;BME280;42622;49.972;8.452;2023-04-28T11:59:49;100256.81;;;15.71;100.00
56876;BME280;42622;49.972;8.452;2023-04-28T12:02:24;100246.88;;;15.83;100.00
56876;BME280;42622;49.972;8.452;2023-04-28T12:04:53;100254.66;;;16.04;100.00
56876;BME280;42622;49.972;8.452;2023-04-28T12:07:19;100249.47;;;16.22;100.00
56876;BME280;42622;49.972;8.452;2023-04-28T12:12:34;100236.72;;;16.06;100.00
56876;BME280;42622;49.972;8.452;2023-04-28T12:17:38;100236.94;;;16.97;100.00
56876;BME280;42622;49.972;8.452;2023-04-28T12:20:09;100229.16;;;17.57;100.00
56876;BME280;42622;49.972;8.452;2023-04-28T12:22:45;100229.53;;;17.80;100.00
56876;BME280;42622;49.972;8.452;2023-04-28T12:25:15;100230.19;;;18.00;100.00
56876;BME280;42622;49.972;8.452;2023-04-28T12:28:05;100225.28;;;18.13;100.00
56876;BME280;42622;49.972;8.452;2023-04-28T12:30:35;100228.50;;;18.25;100.00
56876;BME280;42622;49.972;8.452;2023-04-28T12:33:24;100236.78;;;18.40;100.00
56876;BME280;42622;49.972;8.452;2023-04-28T12:35:52;100236.06;;;18.30;100.00
56876;BME280;42622;49.972;8.452;2023-04-28T12:38:25;100235.44;;;18.10;100.00
56876;BME280;42622;49.972;8.452;2023-04-28T12:40:53;100237.09;;;18.37;100.00
56876;BME280;42622;49.972;8.452;2023-04-28T12:43:19;100227.50;;;18.60;100.00
56876;BME280;42622;49.972;8.452;2023-04-28T12:45:51;100208.94;;;18.59;100.00
56876;BME280;42622;49.972;8.452;2023-04-28T12:48:18;100214.84;;;18.71;100.00
56876;BME280;42622;49.972;8.452;2023-04-28T12:50:44;100221.66;;;18.99;100.00
56876;BME280;42622;49.972;8.452;2023-04-28T12:53:10;100223.94;;;18.78;100.00
56876;BME280;42622;49.972;8.452;2023-04-28T12:55:37;100226.97;;;18.49;100.00
56876;BME280;42622;49.972;8.452;2023-04-28T12:58:05;100237.75;;;18.05;100.00
56876;BME280;42622;49.972;8.452;2023-04-28T13:00:31;100233.91;;;17.63;100.00
56876;BME280;42622;49.972;8.452;2023-04-28T13:02:57;100239.03;;;17.39;100.00
56876;BME280;42622;49.972;8.452;2023-04-28T13:05:23;100233.69;;;17.21;100.00
56876;BME280;42622;49.972;8.452;2023-04-28T13:07:49;100208.69;;;17.12;100.00
56876;BME280;42622;49.972;8.452;2023-04-28T13:10:16;100212.91;;;17.15;100.00
56876;BME280;42622;49.972;8.452;2023-04-28T13:12:42;100199.69;;;17.13;100.00
56876;BME280;42622;49.972;8.452;2023-04-28T13:15:09;100207.31;;;17.08;100.00
56876;BME280;42622;49.972;8.452;2023-04-28T13:17:35;100214.34;;;17.09;100.00
56876;BME280;42622;49.972;8.452;2023-04-28T13:20:04;100223.34;;;17.08;100.00